Time;durP1;ratioP1;P1;durP2;ratioP2;P2;SDS_P1;SDS_P2;PMS_P1;PMS_P2;Temp;Humidity;BMP_temperature;BMP_pressure;BME280_temperature;BME280_humidity;BME280_pressure;Samples;Min_cycle;Max_cycle;Signal;HPM_P1;HPM_P2
2022/07/08 00:00:30;;;;;;;3.38;1.70;;;;;;;;;;5100542;28;20269;-59
2022/07/08 00:02:58;;;;;;;3.92;1.73;;;;;;;;;;5100249;28;20196;-58
2022/07/08 00:05:25;;;;;;;3.13;1.55;;;;;;;;;;5100439;28;20567;-59
2022/07/08 00:07:53;;;;;;;3.75;1.70;;;;;;;;;;5100379;28;20297;-58
2022/07/08 00:10:21;;;;;;;3.92;1.73;;;;;;;;;;5100569;28;20273;-58
2022/07/08 00:12:48;;;;;;;2.55;1.42;;;;;;;;;;5100215;28;20199;-58
2022/07/08 00:15:16;;;;;;;3.90;1.65;;;;;;;;;;5100354;28;20549;-58
2022/07/08 00:17:45;;;;;;;3.55;1.58;;;;;;;;;;5099978;28;20551;-58
2022/07/08 00:20:12;;;;;;;2.97;1.40;;;;;;;;;;5100028;28;20239;-58
2022/07/08 00:22:40;;;;;;;4.00;1.90;;;;;;;;;;5100298;28;20206;-58
2022/07/08 00:25:08;;;;;;;4.70;1.65;;;;;;;;;;5099935;28;20288;-58
2022/07/08 00:27:36;;;;;;;5.28;1.65;;;;;;;;;;5100453;28;20226;-58
2022/07/08 00:30:04;;;;;;;3.22;1.88;;;;;;;;;;5099757;28;20215;-58
2022/07/08 00:32:31;;;;;;;4.32;1.67;;;;;;;;;;5099908;28;20618;-58
2022/07/08 00:35:00;;;;;;;4.78;1.38;;;;;;;;;;5100524;28;20196;-58
2022/07/08 00:37:28;;;;;;;3.88;1.60;;;;;;;;;;5098713;28;20247;-59
2022/07/08 00:39:55;;;;;;;4.53;1.70;;;;;;;;;;5099959;28;20265;-58
2022/07/08 00:42:23;;;;;;;3.42;1.50;;;;;;;;;;5099680;28;20281;-58
2022/07/08 00:44:50;;;;;;;2.10;1.38;;;;;;;;;;5099872;28;20224;-58
2022/07/08 00:47:18;;;;;;;3.65;1.73;;;;;;;;;;5100067;28;20211;-58
2022/07/08 00:49:46;;;;;;;2.65;1.42;;;;;;;;;;5100349;28;20520;-58
2022/07/08 00:52:15;;;;;;;2.42;1.42;;;;;;;;;;5099564;28;20235;-58
2022/07/08 00:54:43;;;;;;;3.42;1.52;;;;;;;;;;5099898;28;20207;-58
2022/07/08 00:57:10;;;;;;;4.53;1.45;;;;;;;;;;5099661;28;20211;-58
2022/07/08 00:59:38;;;;;;;3.55;1.50;;;;;;;;;;5100057;28;20203;-59
2022/07/08 01:02:07;;;;;;;6.43;1.95;;;;;;;;;;5099774;28;20828;-59
2022/07/08 01:04:34;;;;;;;3.50;1.88;;;;;;;;;;5099671;28;20322;-58
2022/07/08 01:07:02;;;;;;;2.67;1.63;;;;;;;;;;5099683;28;20204;-58
2022/07/08 01:09:31;;;;;;;3.08;1.50;;;;;;;;;;5099242;28;20203;-59
2022/07/08 01:11:58;;;;;;;2.90;1.48;;;;;;;;;;5099635;28;20272;-58
2022/07/08 01:14:26;;;;;;;4.40;1.55;;;;;;;;;;5079002;28;20196;-59
2022/07/08 01:16:53;;;;;;;2.90;1.70;;;;;;;;;;5078895;28;20247;-58
2022/07/08 01:19:21;;;;;;;2.42;1.63;;;;;;;;;;5078901;28;20265;-59
2022/07/08 01:21:50;;;;;;;2.67;1.55;;;;;;;;;;5079005;28;20219;-58
2022/07/08 01:24:18;;;;;;;2.65;1.50;;;;;;;;;;5097776;28;20619;-58
2022/07/08 01:26:46;;;;;;;3.70;1.58;;;;;;;;;;5099172;28;20298;-58
2022/07/08 01:29:13;;;;;;;2.90;1.63;;;;;;;;;;5099101;28;20272;-58
2022/07/08 01:31:41;;;;;;;3.33;1.63;;;;;;;;;;5099035;28;20265;-59
2022/07/08 01:34:08;;;;;;;3.35;1.50;;;;;;;;;;5098870;28;20878;-59
2022/07/08 01:36:36;;;;;;;3.75;1.42;;;;;;;;;;5099067;28;20203;-60
2022/07/08 01:39:05;;;;;;;3.15;1.50;;;;;;;;;;5099298;28;20213;-59
2022/07/08 01:41:33;;;;;;;5.43;1.70;;;;;;;;;;5099365;28;20203;-58
2022/07/08 01:44:00;;;;;;;2.40;1.48;;;;;;;;;;5098332;28;20233;-58
2022/07/08 01:46:28;;;;;;;3.38;1.50;;;;;;;;;;5098756;28;20298;-58
2022/07/08 01:48:55;;;;;;;3.55;1.50;;;;;;;;;;5098833;28;20493;-60
2022/07/08 01:51:23;;;;;;;3.55;1.48;;;;;;;;;;5098927;28;20268;-59
2022/07/08 01:53:50;;;;;;;2.33;1.27;;;;;;;;;;5098580;28;20296;-59
2022/07/08 01:56:19;;;;;;;2.03;1.20;;;;;;;;;;5098993;28;20239;-59
2022/07/08 01:58:46;;;;;;;4.20;1.55;;;;;;;;;;5098873;28;20211;-59
2022/07/08 02:01:15;;;;;;;6.07;1.83;;;;;;;;;;5098576;28;20257;-58
2022/07/08 02:03:43;;;;;;;3.72;1.40;;;;;;;;;;5098368;28;20261;-58
2022/07/08 02:06:10;;;;;;;3.25;1.33;;;;;;;;;;5098699;28;20683;-58
2022/07/08 02:08:38;;;;;;;4.55;1.63;;;;;;;;;;5098678;28;20247;-59
2022/07/08 02:13:52;;;;;;;4.20;1.45;;;;;;;;;;5097519;28;20206;-59
2022/07/08 02:16:20;;;;;;;4.38;1.50;;;;;;;;;;5097117;28;20231;-59
2022/07/08 02:18:47;;;;;;;4.15;1.73;;;;;;;;;;5098193;28;20282;-59
2022/07/08 02:21:16;;;;;;;4.75;1.40;;;;;;;;;;5098371;28;20261;-59
2022/07/08 02:23:43;;;;;;;4.35;1.55;;;;;;;;;;5097902;28;20599;-59
2022/07/08 02:26:11;;;;;;;4.32;1.50;;;;;;;;;;5098476;28;20629;-59
2022/07/08 02:28:38;;;;;;;3.15;1.45;;;;;;;;;;5098561;28;20214;-58
2022/07/08 02:31:08;;;;;;;4.55;1.60;;;;;;;;;;5098606;28;20204;-59
2022/07/08 02:33:35;;;;;;;3.00;1.48;;;;;;;;;;5098391;28;20578;-59
2022/07/08 02:36:03;;;;;;;3.63;1.55;;;;;;;;;;5098043;28;20246;-59
2022/07/08 02:38:30;;;;;;;2.90;1.40;;;;;;;;;;5098087;28;20287;-58
2022/07/08 02:40:58;;;;;;;3.50;1.33;;;;;;;;;;5098420;28;20211;-59
2022/07/08 02:43:26;;;;;;;3.47;1.40;;;;;;;;;;5097976;28;20231;-59
2022/07/08 02:45:53;;;;;;;3.60;1.40;;;;;;;;;;5097460;28;20215;-59
2022/07/08 02:48:22;;;;;;;3.38;1.50;;;;;;;;;;5097777;28;20247;-59
2022/07/08 02:50:49;;;;;;;4.93;1.60;;;;;;;;;;5097222;28;20231;-59
2022/07/08 02:53:17;;;;;;;3.03;1.40;;;;;;;;;;5096369;28;20290;-59
2022/07/08 02:55:44;;;;;;;4.13;1.63;;;;;;;;;;5097454;28;20199;-59
2022/07/08 02:58:13;;;;;;;3.05;1.13;;;;;;;;;;5097815;28;20243;-59
2022/07/08 03:00:40;;;;;;;4.65;1.35;;;;;;;;;;5100263;28;20204;-59
2022/07/08 03:03:08;;;;;;;3.28;1.35;;;;;;;;;;5101384;28;20559;-59
2022/07/08 03:05:36;;;;;;;3.45;1.30;;;;;;;;;;5101177;28;20258;-59
2022/07/08 03:08:04;;;;;;;2.47;1.42;;;;;;;;;;5102143;28;20302;-59
2022/07/08 03:10:32;;;;;;;3.88;1.33;;;;;;;;;;5101910;28;20226;-59
2022/07/08 03:13:00;;;;;;;2.40;1.40;;;;;;;;;;5101880;28;20215;-59
2022/07/08 03:15:28;;;;;;;3.38;1.38;;;;;;;;;;5101737;28;20231;-59
2022/07/08 03:17:55;;;;;;;2.78;1.55;;;;;;;;;;5101962;28;20207;-59
2022/07/08 03:20:23;;;;;;;2.92;1.40;;;;;;;;;;5101305;28;20290;-59
2022/07/08 03:22:52;;;;;;;3.97;1.30;;;;;;;;;;5101446;28;20196;-59
2022/07/08 03:25:19;;;;;;;3.15;1.38;;;;;;;;;;5101604;28;20318;-59
2022/07/08 03:27:48;;;;;;;3.38;1.48;;;;;;;;;;5101229;28;20203;-60
2022/07/08 03:30:16;;;;;;;3.15;1.45;;;;;;;;;;5101448;28;20264;-59
2022/07/08 03:32:43;;;;;;;2.90;1.30;;;;;;;;;;5101237;28;20246;-59
2022/07/08 03:35:11;;;;;;;4.63;1.60;;;;;;;;;;5101138;28;20208;-59
2022/07/08 03:37:42;;;;;;;3.83;1.40;;;;;;;;;;5100950;28;20268;-58
2022/07/08 03:42:57;;;;;;;4.13;1.55;;;;;;;;;;5100872;28;20190;-59
2022/07/08 03:45:25;;;;;;;3.83;1.40;;;;;;;;;;5100317;28;20227;-59
2022/07/08 03:47:52;;;;;;;4.03;1.50;;;;;;;;;;5100211;28;20204;-59
2022/07/08 03:50:20;;;;;;;5.38;1.70;;;;;;;;;;5099876;28;20280;-59
2022/07/08 03:52:48;;;;;;;3.60;1.50;;;;;;;;;;5100267;28;20314;-59
2022/07/08 03:55:17;;;;;;;2.28;1.50;;;;;;;;;;5100320;28;20290;-59
2022/07/08 03:57:45;;;;;;;3.35;1.70;;;;;;;;;;5100929;28;20216;-58
2022/07/08 04:00:13;;;;;;;3.75;1.40;;;;;;;;;;5100400;28;20260;-58
2022/07/08 04:02:40;;;;;;;3.00;1.48;;;;;;;;;;5099718;28;20587;-59
2022/07/08 04:05:08;;;;;;;3.67;1.40;;;;;;;;;;5099201;28;20224;-59
2022/07/08 04:07:36;;;;;;;5.10;1.50;;;;;;;;;;5099229;28;20200;-58
2022/07/08 04:10:04;;;;;;;4.05;1.70;;;;;;;;;;5100474;28;20216;-59
2022/07/08 04:12:32;;;;;;;3.67;1.23;;;;;;;;;;5100206;28;20215;-59
2022/07/08 04:15:00;;;;;;;3.50;1.30;;;;;;;;;;5099815;28;20231;-58
2022/07/08 04:17:28;;;;;;;3.47;1.70;;;;;;;;;;5100325;28;20211;-59
2022/07/08 04:19:56;;;;;;;3.70;1.30;;;;;;;;;;5099552;28;20253;-58
2022/07/08 04:22:23;;;;;;;2.92;1.40;;;;;;;;;;5098553;28;20552;-59
2022/07/08 04:24:51;;;;;;;4.30;1.55;;;;;;;;;;5080955;28;20628;-59
2022/07/08 04:27:18;;;;;;;4.97;1.42;;;;;;;;;;5099393;28;20543;-58
2022/07/08 04:29:47;;;;;;;3.92;1.70;;;;;;;;;;5098942;28;20298;-58
2022/07/08 04:32:15;;;;;;;2.40;1.45;;;;;;;;;;5099034;28;20238;-58
2022/07/08 04:34:42;;;;;;;4.78;1.58;;;;;;;;;;5098772;28;20235;-58
2022/07/08 04:37:10;;;;;;;4.20;1.63;;;;;;;;;;5099226;28;20250;-59
2022/07/08 04:39:37;;;;;;;2.97;1.48;;;;;;;;;;5098563;28;20296;-58
2022/07/08 04:42:05;;;;;;;4.00;1.80;;;;;;;;;;5098996;28;20208;-58
2022/07/08 04:44:32;;;;;;;4.85;1.65;;;;;;;;;;5097826;28;20278;-58
2022/07/08 04:47:03;;;;;;;3.90;1.50;;;;;;;;;;5098139;28;20272;-58
2022/07/08 04:49:31;;;;;;;4.85;1.52;;;;;;;;;;5097776;28;20200;-58
2022/07/08 04:51:58;;;;;;;2.53;1.45;;;;;;;;;;5097521;28;20223;-58
2022/07/08 04:54:26;;;;;;;4.18;2.10;;;;;;;;;;5098287;28;20234;-58
2022/07/08 04:56:53;;;;;;;4.32;1.85;;;;;;;;;;5098042;28;20204;-58
2022/07/08 04:59:21;;;;;;;3.28;1.52;;;;;;;;;;5097390;28;20208;-58
2022/07/08 05:01:49;;;;;;;3.40;1.58;;;;;;;;;;5097058;28;20238;-58
2022/07/08 05:04:18;;;;;;;3.92;1.50;;;;;;;;;;5098040;28;20280;-59
2022/07/08 05:06:45;;;;;;;6.20;1.52;;;;;;;;;;5097376;28;20649;-60
2022/07/08 05:09:14;;;;;;;4.50;1.52;;;;;;;;;;5097753;28;20295;-59
2022/07/08 05:11:41;;;;;;;3.90;1.67;;;;;;;;;;5096572;28;20573;-59
2022/07/08 05:14:13;;;;;;;4.95;1.58;;;;;;;;;;5096815;28;20212;-58
2022/07/08 05:16:41;;;;;;;4.07;1.58;;;;;;;;;;5096379;28;20203;-58
2022/07/08 05:19:08;;;;;;;2.95;1.50;;;;;;;;;;5095728;28;20204;-58
2022/07/08 05:21:37;;;;;;;3.95;1.70;;;;;;;;;;5096389;28;20227;-58
2022/07/08 05:24:05;;;;;;;3.50;1.70;;;;;;;;;;5095606;28;20242;-58
2022/07/08 05:26:33;;;;;;;3.47;1.50;;;;;;;;;;5095977;28;20680;-58
2022/07/08 05:29:01;;;;;;;5.05;1.80;;;;;;;;;;5095920;28;20634;-57
2022/07/08 05:31:28;;;;;;;4.85;2.03;;;;;;;;;;5095439;28;20203;-57
2022/07/08 05:33:56;;;;;;;4.53;1.60;;;;;;;;;;5096103;28;20196;-58
2022/07/08 05:36:23;;;;;;;5.03;1.60;;;;;;;;;;5096819;28;20199;-58
2022/07/08 05:38:52;;;;;;;3.90;1.63;;;;;;;;;;5095946;28;20243;-58
2022/07/08 05:41:20;;;;;;;6.38;1.55;;;;;;;;;;5096368;28;20300;-58
2022/07/08 05:43:47;;;;;;;4.13;1.80;;;;;;;;;;5095636;28;20242;-58
2022/07/08 05:46:15;;;;;;;4.20;2.05;;;;;;;;;;5095738;28;20319;-58
2022/07/08 05:48:42;;;;;;;4.47;1.67;;;;;;;;;;5096735;28;20511;-59
2022/07/08 05:51:09;;;;;;;4.43;2.00;;;;;;;;;;5095727;28;20872;-58
2022/07/08 05:53:37;;;;;;;6.00;2.08;;;;;;;;;;5095718;28;20637;-58
2022/07/08 05:56:06;;;;;;;5.07;1.95;;;;;;;;;;5095600;28;20294;-58
2022/07/08 05:58:34;;;;;;;3.35;1.90;;;;;;;;;;5095296;28;20299;-58
2022/07/08 06:01:02;;;;;;;4.65;1.80;;;;;;;;;;5094536;28;20195;-59
2022/07/08 06:03:30;;;;;;;3.60;2.00;;;;;;;;;;5094751;28;20192;-58
2022/07/08 06:06:00;;;;;;;5.88;2.03;;;;;;;;;;5094839;28;20486;-59
2022/07/08 06:08:29;;;;;;;4.63;1.80;;;;;;;;;;5094844;28;20204;-58
2022/07/08 06:10:58;;;;;;;4.20;1.83;;;;;;;;;;5095501;28;20548;-58
2022/07/08 06:13:27;;;;;;;4.85;1.88;;;;;;;;;;5094602;28;20199;-58
2022/07/08 06:15:55;;;;;;;4.05;2.00;;;;;;;;;;5095516;28;20254;-58
2022/07/08 06:18:22;;;;;;;2.85;1.88;;;;;;;;;;5095700;28;20211;-57
2022/07/08 06:20:50;;;;;;;5.53;1.92;;;;;;;;;;5095121;28;20561;-59
2022/07/08 06:23:18;;;;;;;4.15;1.70;;;;;;;;;;5095308;28;20649;-58
2022/07/08 06:25:45;;;;;;;5.30;2.03;;;;;;;;;;5095243;28;20557;-58
2022/07/08 06:28:12;;;;;;;4.65;2.10;;;;;;;;;;5095410;28;20207;-59
2022/07/08 06:30:42;;;;;;;9.30;2.47;;;;;;;;;;5095257;28;20676;-58
2022/07/08 06:33:10;;;;;;;4.35;1.83;;;;;;;;;;5094697;28;20298;-59
2022/07/08 06:35:38;;;;;;;4.97;2.05;;;;;;;;;;5095227;28;20217;-59
2022/07/08 06:38:05;;;;;;;4.70;2.30;;;;;;;;;;5095929;28;20236;-59
2022/07/08 06:40:33;;;;;;;4.13;1.80;;;;;;;;;;5094996;28;20533;-59
2022/07/08 06:43:00;;;;;;;4.72;1.80;;;;;;;;;;5095197;28;20309;-58
2022/07/08 06:45:30;;;;;;;5.20;1.90;;;;;;;;;;5094614;28;20672;-59
2022/07/08 06:47:59;;;;;;;3.00;1.85;;;;;;;;;;5095459;28;20211;-59
2022/07/08 06:50:26;;;;;;;5.80;1.95;;;;;;;;;;5095245;28;20204;-59
2022/07/08 06:52:54;;;;;;;6.95;2.17;;;;;;;;;;5095124;28;20227;-59
2022/07/08 06:55:22;;;;;;;4.45;1.95;;;;;;;;;;5094722;28;20200;-58
2022/07/08 06:57:50;;;;;;;4.35;2.22;;;;;;;;;;5096109;28;20229;-59
2022/07/08 07:00:19;;;;;;;5.85;2.00;;;;;;;;;;5095812;28;20269;-58
2022/07/08 07:02:46;;;;;;;6.70;2.20;;;;;;;;;;5094824;28;20200;-59
2022/07/08 07:05:15;;;;;;;5.45;2.17;;;;;;;;;;5095952;28;20215;-59
2022/07/08 07:07:42;;;;;;;5.47;2.10;;;;;;;;;;5096090;28;20266;-59
2022/07/08 07:10:11;;;;;;;3.90;2.25;;;;;;;;;;5095354;28;20203;-58
2022/07/08 07:12:38;;;;;;;3.92;1.88;;;;;;;;;;5095083;28;20227;-59
2022/07/08 07:15:07;;;;;;;3.60;2.00;;;;;;;;;;5094146;28;20203;-59
2022/07/08 07:17:34;;;;;;;5.07;1.95;;;;;;;;;;5093267;28;20265;-59
2022/07/08 07:20:02;;;;;;;3.50;1.90;;;;;;;;;;5094289;28;20288;-59
2022/07/08 07:22:30;;;;;;;3.38;1.75;;;;;;;;;;5094037;28;20579;-59
2022/07/08 07:24:58;;;;;;;5.57;2.30;;;;;;;;;;5094979;28;20591;-59
2022/07/08 07:27:26;;;;;;;5.32;1.88;;;;;;;;;;5094301;28;20316;-59
2022/07/08 07:29:53;;;;;;;4.72;1.80;;;;;;;;;;5094965;28;20642;-58
2022/07/08 07:32:21;;;;;;;4.68;1.95;;;;;;;;;;5093784;28;20284;-58
2022/07/08 07:34:48;;;;;;;5.50;1.50;;;;;;;;;;5094667;28;20267;-59
2022/07/08 07:37:16;;;;;;;3.47;1.75;;;;;;;;;;5093982;28;20204;-59
2022/07/08 07:39:44;;;;;;;3.40;1.58;;;;;;;;;;5094736;28;20264;-59
2022/07/08 07:42:12;;;;;;;2.85;1.60;;;;;;;;;;5093411;28;20207;-59
2022/07/08 07:44:40;;;;;;;5.60;1.83;;;;;;;;;;5095205;28;20204;-59
2022/07/08 07:47:08;;;;;;;4.70;1.60;;;;;;;;;;5097711;28;20273;-59
2022/07/08 07:49:35;;;;;;;5.00;1.70;;;;;;;;;;5098247;28;20208;-63
2022/07/08 07:52:03;;;;;;;2.58;1.30;;;;;;;;;;5097664;28;20199;-58
2022/07/08 07:54:30;;;;;;;3.38;1.55;;;;;;;;;;5098111;28;20473;-58
2022/07/08 07:56:59;;;;;;;3.58;1.50;;;;;;;;;;5097412;28;20200;-59
2022/07/08 07:59:27;;;;;;;3.30;1.65;;;;;;;;;;5098362;28;20211;-59
2022/07/08 08:01:55;;;;;;;3.63;1.42;;;;;;;;;;5097985;28;20640;-58
2022/07/08 08:04:22;;;;;;;3.88;1.63;;;;;;;;;;5098398;28;20294;-57
2022/07/08 08:06:50;;;;;;;2.92;1.58;;;;;;;;;;5097484;28;20253;-58
2022/07/08 08:09:18;;;;;;;3.92;1.70;;;;;;;;;;5097712;28;20210;-59
2022/07/08 08:11:46;;;;;;;2.22;1.50;;;;;;;;;;5097827;28;20317;-59
2022/07/08 08:14:15;;;;;;;2.65;1.50;;;;;;;;;;5097969;28;20245;-59
2022/07/08 08:16:43;;;;;;;4.15;1.73;;;;;;;;;;5097987;28;20263;-58
2022/07/08 08:19:10;;;;;;;3.33;1.77;;;;;;;;;;5097750;28;20763;-58
2022/07/08 08:21:38;;;;;;;3.85;1.92;;;;;;;;;;5098119;28;20739;-58
2022/07/08 08:24:06;;;;;;;3.38;1.50;;;;;;;;;;5096525;28;20238;-59
2022/07/08 08:26:33;;;;;;;4.70;1.85;;;;;;;;;;5097441;28;20223;-58
2022/07/08 08:29:01;;;;;;;3.40;1.60;;;;;;;;;;5096950;28;20257;-59
2022/07/08 08:31:30;;;;;;;4.47;1.80;;;;;;;;;;5096486;28;20204;-59
2022/07/08 08:33:58;;;;;;;4.15;1.77;;;;;;;;;;5097107;28;20219;-59
2022/07/08 08:36:26;;;;;;;3.92;1.77;;;;;;;;;;5097594;28;20207;-58
2022/07/08 08:38:54;;;;;;;4.18;1.83;;;;;;;;;;5096900;28;20203;-59
2022/07/08 08:41:22;;;;;;;4.15;1.45;;;;;;;;;;5096410;28;20264;-58
2022/07/08 08:43:49;;;;;;;3.35;1.63;;;;;;;;;;5096519;28;20280;-59
2022/07/08 08:46:19;;;;;;;3.20;1.67;;;;;;;;;;5096884;28;20469;-59
2022/07/08 08:48:48;;;;;;;2.97;1.85;;;;;;;;;;5096726;28;20235;-59
2022/07/08 08:51:15;;;;;;;3.58;1.75;;;;;;;;;;5097530;28;20296;-59
2022/07/08 08:53:44;;;;;;;2.67;1.58;;;;;;;;;;5095188;28;20348;-60
2022/07/08 08:56:12;;;;;;;2.65;1.52;;;;;;;;;;5096787;28;20233;-59
2022/07/08 08:58:41;;;;;;;2.55;1.30;;;;;;;;;;5096124;28;20311;-59
2022/07/08 09:01:10;;;;;;;2.42;1.38;;;;;;;;;;5098256;28;20203;-58
2022/07/08 09:03:38;;;;;;;3.22;2.08;;;;;;;;;;5096082;28;20268;-58
2022/07/08 09:06:07;;;;;;;5.18;1.50;;;;;;;;;;5096266;28;20239;-58
2022/07/08 09:08:36;;;;;;;3.20;1.60;;;;;;;;;;5096545;28;20264;-58
2022/07/08 09:11:03;;;;;;;5.55;2.13;;;;;;;;;;5096468;28;20192;-58
2022/07/08 09:13:31;;;;;;;4.70;2.10;;;;;;;;;;5096234;28;20299;-58
2022/07/08 09:15:59;;;;;;;3.75;1.83;;;;;;;;;;5095269;28;20199;-58
2022/07/08 09:18:28;;;;;;;3.80;1.98;;;;;;;;;;5095854;28;20226;-58
2022/07/08 09:20:56;;;;;;;3.65;1.95;;;;;;;;;;5095371;28;20212;-58
2022/07/08 09:23:26;;;;;;;2.88;1.70;;;;;;;;;;5095508;28;20211;-58
2022/07/08 09:25:54;;;;;;;3.13;1.70;;;;;;;;;;5096358;28;20300;-59
2022/07/08 09:28:29;;;;;;;3.40;1.67;;;;;;;;;;5096484;28;20285;-59
2022/07/08 09:30:57;;;;;;;2.17;1.20;;;;;;;;;;5096008;28;20211;-59
2022/07/08 09:33:25;;;;;;;3.63;1.40;;;;;;;;;;5094885;28;20261;-59
2022/07/08 09:35:54;;;;;;;4.00;1.60;;;;;;;;;;5095757;28;20206;-59
2022/07/08 09:38:22;;;;;;;4.20;1.70;;;;;;;;;;5094794;28;20203;-59
2022/07/08 09:40:58;;;;;;;4.07;1.90;;;;;;;;;;5093926;28;20702;-58
2022/07/08 09:43:26;;;;;;;4.50;1.65;;;;;;;;;;5095212;28;20742;-59
2022/07/08 09:45:54;;;;;;;5.10;1.77;;;;;;;;;;5095429;28;20587;-59
2022/07/08 09:48:21;;;;;;;4.32;1.90;;;;;;;;;;5094296;28;20234;-59
2022/07/08 09:50:49;;;;;;;5.85;2.10;;;;;;;;;;5094833;28;20240;-59
2022/07/08 09:53:17;;;;;;;3.72;2.10;;;;;;;;;;5094396;28;20245;-59
2022/07/08 09:55:47;;;;;;;3.15;1.67;;;;;;;;;;5094166;28;20265;-58
2022/07/08 09:58:17;;;;;;;4.43;2.15;;;;;;;;;;5095459;28;20312;-59
2022/07/08 10:00:45;;;;;;;3.95;1.80;;;;;;;;;;5095107;28;20211;-59
2022/07/08 10:03:13;;;;;;;2.70;1.63;;;;;;;;;;5094897;28;20200;-59
2022/07/08 10:05:41;;;;;;;4.90;2.05;;;;;;;;;;5094547;28;20264;-59
2022/07/08 10:08:08;;;;;;;3.17;1.60;;;;;;;;;;5095449;28;20668;-58
2022/07/08 10:10:37;;;;;;;4.30;1.83;;;;;;;;;;5095400;28;20207;-58
2022/07/08 10:13:05;;;;;;;4.57;1.90;;;;;;;;;;5094923;28;20561;-59
2022/07/08 10:15:35;;;;;;;5.10;1.75;;;;;;;;;;5095335;28;20200;-59
2022/07/08 10:18:08;;;;;;;4.00;1.88;;;;;;;;;;5094692;28;20591;-58
2022/07/08 10:20:37;;;;;;;3.90;2.10;;;;;;;;;;5092928;28;20323;-58
2022/07/08 10:23:07;;;;;;;4.45;2.15;;;;;;;;;;5093336;28;20257;-58
2022/07/08 10:25:34;;;;;;;4.88;1.67;;;;;;;;;;5094263;28;20203;-58
2022/07/08 10:28:06;;;;;;;4.55;1.95;;;;;;;;;;5094346;28;20322;-58
2022/07/08 10:30:47;;;;;;;3.90;2.10;;;;;;;;;;5094812;28;20211;-57
2022/07/08 10:33:19;;;;;;;4.20;2.03;;;;;;;;;;5093341;28;20202;-58
2022/07/08 10:36:01;;;;;;;3.92;2.00;;;;;;;;;;5094222;28;20579;-58
2022/07/08 10:38:30;;;;;;;3.85;2.05;;;;;;;;;;5093965;28;20714;-58
2022/07/08 10:41:02;;;;;;;4.30;2.10;;;;;;;;;;5094774;28;20227;-59
2022/07/08 10:43:30;;;;;;;5.13;2.15;;;;;;;;;;5094663;28;20200;-58
2022/07/08 10:46:07;;;;;;;3.08;2.03;;;;;;;;;;5094225;28;20298;-58
2022/07/08 10:48:51;;;;;;;3.45;1.90;;;;;;;;;;5094263;28;20238;-58
2022/07/08 10:51:37;;;;;;;3.15;1.98;;;;;;;;;;5094113;28;20203;-58
2022/07/08 10:54:05;;;;;;;4.70;1.88;;;;;;;;;;5093300;28;20322;-58
2022/07/08 10:56:48;;;;;;;5.47;1.92;;;;;;;;;;5094205;28;20203;-58
2022/07/08 10:59:19;;;;;;;3.70;1.88;;;;;;;;;;5093116;28;20567;-58
2022/07/08 11:01:51;;;;;;;3.15;1.80;;;;;;;;;;5093220;28;20265;-57
2022/07/08 11:04:22;;;;;;;2.88;1.80;;;;;;;;;;5093487;28;20199;-58
2022/07/08 11:06:50;;;;;;;5.43;1.90;;;;;;;;;;5093867;28;20254;-58
2022/07/08 11:09:18;;;;;;;5.97;1.90;;;;;;;;;;5093775;28;20243;-58
2022/07/08 11:11:46;;;;;;;4.43;2.00;;;;;;;;;;5093348;28;20492;-58
2022/07/08 11:14:14;;;;;;;2.97;1.60;;;;;;;;;;5093672;28;20525;-58
2022/07/08 11:16:41;;;;;;;4.40;1.90;;;;;;;;;;5093999;28;20199;-58
2022/07/08 11:19:10;;;;;;;5.38;2.05;;;;;;;;;;5094826;28;20203;-58
2022/07/08 11:21:38;;;;;;;4.60;2.00;;;;;;;;;;5096614;28;20250;-58
2022/07/08 11:24:05;;;;;;;2.85;1.52;;;;;;;;;;5096722;28;20617;-59
2022/07/08 11:26:34;;;;;;;3.25;2.00;;;;;;;;;;5097180;28;20301;-58
2022/07/08 11:29:01;;;;;;;3.25;1.80;;;;;;;;;;5097713;28;20219;-59
2022/07/08 11:31:32;;;;;;;3.70;1.77;;;;;;;;;;5096554;28;20586;-58
2022/07/08 11:33:59;;;;;;;2.72;1.58;;;;;;;;;;5096277;28;20659;-58
2022/07/08 11:36:28;;;;;;;3.58;1.83;;;;;;;;;;5097398;28;20212;-58
2022/07/08 11:38:56;;;;;;;3.33;2.05;;;;;;;;;;5098158;28;20246;-58
2022/07/08 11:41:23;;;;;;;4.03;1.73;;;;;;;;;;5097238;28;20204;-59
2022/07/08 11:43:51;;;;;;;3.90;1.70;;;;;;;;;;5097216;28;20199;-59
2022/07/08 11:46:20;;;;;;;3.30;1.85;;;;;;;;;;5097415;28;20725;-59
2022/07/08 11:48:48;;;;;;;3.08;1.65;;;;;;;;;;5097959;28;20288;-59
2022/07/08 11:51:16;;;;;;;3.47;1.60;;;;;;;;;;5096865;28;20573;-59
2022/07/08 11:53:46;;;;;;;2.97;1.70;;;;;;;;;;5095023;28;20238;-59
2022/07/08 11:56:13;;;;;;;2.35;1.48;;;;;;;;;;5097810;28;20210;-58
2022/07/08 11:58:41;;;;;;;2.95;1.58;;;;;;;;;;5096792;28;20206;-59
2022/07/08 12:01:09;;;;;;;3.80;1.73;;;;;;;;;;5096816;28;20253;-59
2022/07/08 12:03:36;;;;;;;3.45;1.88;;;;;;;;;;5095962;28;20207;-59
2022/07/08 12:06:04;;;;;;;4.20;1.92;;;;;;;;;;5096872;28;20286;-58
2022/07/08 12:08:33;;;;;;;3.38;1.90;;;;;;;;;;5095538;28;20223;-58
2022/07/08 12:11:16;;;;;;;2.25;1.60;;;;;;;;;;5096591;28;20233;-59
2022/07/08 12:13:44;;;;;;;3.83;1.67;;;;;;;;;;5095976;28;20208;-59
2022/07/08 12:16:12;;;;;;;2.03;1.48;;;;;;;;;;5097039;28;20249;-59
2022/07/08 12:18:45;;;;;;;2.83;1.50;;;;;;;;;;5097156;28;20196;-58
2022/07/08 12:21:20;;;;;;;2.90;1.73;;;;;;;;;;5096675;28;20188;-59
2022/07/08 12:23:56;;;;;;;3.40;1.60;;;;;;;;;;5096950;28;20563;-59
2022/07/08 12:26:25;;;;;;;3.22;1.73;;;;;;;;;;5096905;28;20203;-59
2022/07/08 12:28:52;;;;;;;2.92;1.80;;;;;;;;;;5097103;28;20631;-59
2022/07/08 12:31:36;;;;;;;3.20;1.77;;;;;;;;;;5095655;28;20230;-59
2022/07/08 12:34:04;;;;;;;3.72;1.88;;;;;;;;;;5095918;28;20204;-59
2022/07/08 12:36:32;;;;;;;2.95;1.95;;;;;;;;;;5095792;28;20648;-59
2022/07/08 12:39:00;;;;;;;3.65;2.00;;;;;;;;;;5096151;28;20247;-60
2022/07/08 12:41:32;;;;;;;2.72;1.60;;;;;;;;;;5095806;28;20206;-59
2022/07/08 12:44:00;;;;;;;2.38;1.60;;;;;;;;;;5095763;28;20240;-59
2022/07/08 12:46:28;;;;;;;2.97;1.65;;;;;;;;;;5096267;28;20290;-59
2022/07/08 12:48:56;;;;;;;2.75;1.80;;;;;;;;;;5095447;28;20223;-59
2022/07/08 12:51:24;;;;;;;3.65;1.88;;;;;;;;;;5096216;28;20198;-59
2022/07/08 12:53:52;;;;;;;2.95;1.80;;;;;;;;;;5095895;28;20235;-58
2022/07/08 12:56:19;;;;;;;6.25;1.73;;;;;;;;;;5095211;28;20195;-59
2022/07/08 12:58:48;;;;;;;3.22;1.60;;;;;;;;;;5095440;28;20526;-59
2022/07/08 13:01:15;;;;;;;3.47;1.75;;;;;;;;;;5095785;28;20537;-59
2022/07/08 13:03:43;;;;;;;2.80;1.70;;;;;;;;;;5095332;28;20294;-59
2022/07/08 13:06:10;;;;;;;4.32;1.60;;;;;;;;;;5095544;28;20235;-59
2022/07/08 13:08:38;;;;;;;3.05;1.75;;;;;;;;;;5094992;28;20558;-59
2022/07/08 13:11:05;;;;;;;3.33;2.38;;;;;;;;;;5095232;28;20260;-59
2022/07/08 13:13:33;;;;;;;4.20;2.20;;;;;;;;;;5096222;28;20292;-59
2022/07/08 13:16:02;;;;;;;2.70;2.22;;;;;;;;;;5095803;28;20670;-59
2022/07/08 13:18:29;;;;;;;3.08;2.17;;;;;;;;;;5095881;28;20260;-59
2022/07/08 13:20:57;;;;;;;4.20;2.45;;;;;;;;;;5095812;28;20253;-58
2022/07/08 13:23:24;;;;;;;3.63;2.30;;;;;;;;;;5095143;28;20196;-58
2022/07/08 13:25:52;;;;;;;4.65;2.63;;;;;;;;;;5094663;28;20222;-57
2022/07/08 13:28:21;;;;;;;3.83;2.40;;;;;;;;;;5095500;28;20227;-58
2022/07/08 13:30:50;;;;;;;3.33;2.42;;;;;;;;;;5093982;28;20664;-58
2022/07/08 13:33:19;;;;;;;4.70;2.50;;;;;;;;;;5094246;28;20200;-58
2022/07/08 13:35:47;;;;;;;4.03;1.98;;;;;;;;;;5094224;28;20303;-58
2022/07/08 13:38:17;;;;;;;3.83;2.70;;;;;;;;;;5094901;28;20202;-58
2022/07/08 13:40:45;;;;;;;3.03;2.10;;;;;;;;;;5093789;28;20501;-58
2022/07/08 13:43:12;;;;;;;3.80;2.50;;;;;;;;;;5094009;28;20204;-58
2022/07/08 13:45:40;;;;;;;4.07;2.40;;;;;;;;;;5094095;28;20235;-58
2022/07/08 13:48:08;;;;;;;2.92;1.98;;;;;;;;;;5095064;28;20266;-58
2022/07/08 13:50:37;;;;;;;4.40;2.15;;;;;;;;;;5094497;28;20307;-59
2022/07/08 13:53:04;;;;;;;2.92;1.88;;;;;;;;;;5092936;28;20542;-58
2022/07/08 13:55:32;;;;;;;4.40;2.25;;;;;;;;;;5094289;28;20235;-58
2022/07/08 13:57:59;;;;;;;2.78;2.00;;;;;;;;;;5094455;28;20208;-58
2022/07/08 14:00:27;;;;;;;4.10;2.00;;;;;;;;;;5094840;28;20256;-59
2022/07/08 14:02:56;;;;;;;2.70;1.80;;;;;;;;;;5095027;28;20239;-59
2022/07/08 14:05:23;;;;;;;2.55;1.92;;;;;;;;;;5094946;28;20207;-59
2022/07/08 14:07:53;;;;;;;2.97;1.77;;;;;;;;;;5094867;28;20210;-59
2022/07/08 14:10:21;;;;;;;3.15;1.85;;;;;;;;;;5094413;28;20305;-60
2022/07/08 14:12:48;;;;;;;2.92;1.90;;;;;;;;;;5095177;28;20231;-59
2022/07/08 14:15:16;;;;;;;2.97;2.00;;;;;;;;;;5095614;28;20233;-59
2022/07/08 14:17:43;;;;;;;2.47;1.67;;;;;;;;;;5095380;28;20233;-59
2022/07/08 14:20:11;;;;;;;2.85;1.95;;;;;;;;;;5094830;28;20298;-59
2022/07/08 14:22:39;;;;;;;2.25;1.65;;;;;;;;;;5094261;28;20222;-57
2022/07/08 14:25:08;;;;;;;1.98;1.58;;;;;;;;;;5093924;28;20739;-58
2022/07/08 14:27:36;;;;;;;3.45;1.98;;;;;;;;;;5093697;28;20231;-60
2022/07/08 14:30:04;;;;;;;3.65;1.67;;;;;;;;;;5094474;28;20230;-58
2022/07/08 14:32:32;;;;;;;2.58;1.65;;;;;;;;;;5093520;28;20195;-57
2022/07/08 14:34:59;;;;;;;2.83;1.70;;;;;;;;;;5093268;28;20200;-59
2022/07/08 14:37:27;;;;;;;2.03;1.60;;;;;;;;;;5094248;28;20207;-59
2022/07/08 14:39:54;;;;;;;2.13;1.70;;;;;;;;;;5093690;28;20192;-59
2022/07/08 14:42:23;;;;;;;3.25;1.80;;;;;;;;;;5095018;28;20223;-60
2022/07/08 14:44:50;;;;;;;2.05;1.48;;;;;;;;;;5094203;28;20203;-58
2022/07/08 14:47:18;;;;;;;5.25;1.70;;;;;;;;;;5093776;28;20195;-60
2022/07/08 14:49:46;;;;;;;4.38;1.98;;;;;;;;;;5093287;28;20255;-58
2022/07/08 14:52:15;;;;;;;2.55;1.58;;;;;;;;;;5093290;28;20535;-59
2022/07/08 14:54:43;;;;;;;2.67;1.70;;;;;;;;;;5094023;28;20243;-59